createdAt,value
2022-12-06T00:00:01.918Z,4.75
2022-12-06T00:00:28.161Z,4.05
2022-12-06T00:00:50.992Z,3.90
2022-12-06T00:01:17.993Z,3.70
2022-12-06T00:01:44.289Z,3.83
2022-12-06T00:02:07.188Z,3.85
2022-12-06T00:02:29.966Z,3.83
2022-12-06T00:02:55.241Z,4.57
2022-12-06T00:03:17.995Z,4.20
2022-12-06T00:03:44.372Z,4.20
2022-12-06T00:04:11.691Z,3.28
2022-12-06T00:04:34.450Z,4.50
2022-12-06T00:04:59.242Z,4.35
2022-12-06T00:05:22.014Z,4.85
2022-12-06T00:05:46.330Z,4.07
2022-12-06T00:06:14.724Z,4.85
2022-12-06T00:06:38.515Z,4.03
2022-12-06T00:07:01.276Z,3.35
2022-12-06T00:07:26.230Z,3.63
2022-12-06T00:07:50.286Z,4.05
2022-12-06T00:08:15.283Z,4.05
2022-12-06T00:08:40.475Z,3.45
2022-12-06T00:09:05.676Z,4.57
2022-12-06T00:09:29.521Z,3.80
2022-12-06T00:09:52.455Z,4.43
2022-12-06T00:10:15.605Z,4.97
2022-12-06T00:10:40.770Z,4.45
2022-12-06T00:11:05.135Z,3.85
2022-12-06T00:11:31.318Z,3.90
2022-12-06T00:11:56.623Z,3.75
2022-12-06T00:12:19.346Z,3.78
2022-12-06T00:12:44.166Z,3.85
2022-12-06T00:13:06.878Z,4.10
2022-12-06T00:13:32.478Z,4.25
2022-12-06T00:13:56.302Z,4.25
2022-12-06T00:14:21.380Z,4.00
2022-12-06T00:14:44.290Z,3.90
2022-12-06T00:15:08.359Z,3.72
2022-12-06T00:15:37.831Z,4.38
2022-12-06T00:16:02.706Z,4.45
2022-12-06T00:16:28.897Z,4.80
2022-12-06T00:16:52.173Z,3.38
2022-12-06T00:17:15.053Z,4.05
2022-12-06T00:17:43.026Z,4.07
2022-12-06T00:18:06.105Z,3.90
2022-12-06T00:18:28.951Z,3.97
2022-12-06T00:18:51.797Z,4.68
2022-12-06T00:19:17.906Z,3.90
2022-12-06T00:19:40.725Z,3.95
2022-12-06T00:20:07.996Z,3.60
2022-12-06T00:20:30.877Z,4.15
2022-12-06T00:20:53.817Z,4.03
2022-12-06T00:21:20.823Z,4.88
2022-12-06T00:21:43.639Z,4.07
2022-12-06T00:22:08.770Z,3.88
2022-12-06T00:22:31.516Z,3.70
2022-12-06T00:22:54.291Z,4.13
2022-12-06T00:23:20.091Z,3.83
2022-12-06T00:23:47.044Z,3.70
2022-12-06T00:24:11.682Z,4.13
2022-12-06T00:24:35.364Z,3.90
2022-12-06T00:25:00.331Z,4.15
2022-12-06T00:25:22.990Z,3.80
2022-12-06T00:25:48.140Z,4.35
2022-12-06T00:26:10.886Z,4.05
2022-12-06T00:26:37.564Z,3.92
2022-12-06T00:27:00.320Z,4.22
2022-12-06T00:27:25.255Z,3.88
2022-12-06T00:27:47.999Z,4.35
2022-12-06T00:28:12.949Z,4.78
2022-12-06T00:28:39.840Z,4.45
2022-12-06T00:29:02.661Z,3.78
2022-12-06T00:29:25.531Z,4.22
2022-12-06T00:29:51.320Z,4.22
2022-12-06T00:30:14.335Z,3.78
2022-12-06T00:30:41.512Z,4.40
2022-12-06T00:31:05.275Z,4.13
2022-12-06T00:31:31.945Z,4.50
2022-12-06T00:31:57.261Z,4.78
2022-12-06T00:32:20.132Z,3.67
2022-12-06T00:32:43.030Z,4.22
2022-12-06T00:33:05.840Z,4.28
2022-12-06T00:33:31.405Z,4.00
2022-12-06T00:33:56.638Z,4.28
2022-12-06T00:34:21.846Z,4.43
2022-12-06T00:34:44.499Z,4.10
2022-12-06T00:35:07.813Z,4.10
2022-12-06T00:35:30.637Z,3.95
2022-12-06T00:35:59.139Z,3.88
2022-12-06T00:36:22.966Z,4.00
2022-12-06T00:36:48.941Z,4.15
2022-12-06T00:37:11.661Z,4.22
2022-12-06T00:37:37.437Z,3.55
2022-12-06T00:38:00.381Z,4.60
2022-12-06T00:38:26.196Z,4.05
2022-12-06T00:38:51.565Z,4.40
2022-12-06T00:39:15.282Z,4.03
2022-12-06T00:39:40.464Z,4.53
2022-12-06T00:40:03.199Z,3.97
2022-12-06T00:40:28.177Z,3.42
2022-12-06T00:40:51.156Z,3.63
2022-12-06T00:41:14.720Z,4.20
2022-12-06T00:41:39.921Z,4.45
2022-12-06T00:42:02.651Z,5.05
2022-12-06T00:42:27.520Z,4.13
2022-12-06T00:42:50.236Z,4.35
2022-12-06T00:43:15.160Z,3.92
2022-12-06T00:43:40.370Z,5.60
2022-12-06T00:44:03.058Z,3.85
2022-12-06T00:44:26.010Z,4.35
2022-12-06T00:44:50.876Z,3.80
2022-12-06T00:45:13.575Z,4.93
2022-12-06T00:45:40.879Z,4.80
2022-12-06T00:46:04.139Z,4.63
2022-12-06T00:46:28.265Z,3.83
2022-12-06T00:46:51.150Z,4.25
2022-12-06T00:47:13.926Z,4.10
2022-12-06T00:47:36.804Z,4.32
2022-12-06T00:48:01.856Z,3.63
2022-12-06T00:48:24.662Z,3.50
2022-12-06T00:48:47.797Z,4.20
2022-12-06T00:49:12.735Z,3.92
2022-12-06T00:49:35.434Z,3.63
2022-12-06T00:49:58.362Z,3.72
2022-12-06T00:50:21.270Z,4.80
2022-12-06T00:50:44.167Z,4.47
2022-12-06T00:51:09.517Z,4.03
2022-12-06T00:51:32.610Z,4.55
2022-12-06T00:51:57.577Z,4.60
2022-12-06T00:52:20.341Z,4.65
2022-12-06T00:52:45.314Z,4.78
2022-12-06T00:53:10.191Z,4.38
2022-12-06T00:53:35.921Z,5.38
2022-12-06T00:53:59.111Z,4.97
2022-12-06T00:54:24.411Z,4.80
2022-12-06T00:54:47.196Z,4.28
2022-12-06T00:55:10.158Z,4.97
2022-12-06T00:55:35.161Z,5.18
2022-12-06T00:56:00.109Z,4.65
2022-12-06T00:56:22.950Z,4.53
2022-12-06T00:56:45.667Z,4.28
2022-12-06T00:57:11.035Z,4.25
2022-12-06T00:57:33.751Z,4.18
2022-12-06T00:57:56.490Z,3.70
2022-12-06T00:58:21.625Z,4.78
2022-12-06T00:58:46.594Z,5.75
2022-12-06T00:59:12.217Z,4.70
2022-12-06T00:59:34.950Z,5.18
2022-12-06T01:00:00.381Z,5.28
2022-12-06T01:00:23.365Z,5.25
2022-12-06T01:00:47.736Z,7.22
2022-12-06T01:01:11.279Z,6.47
2022-12-06T01:01:36.664Z,6.25
2022-12-06T01:01:59.584Z,7.38
2022-12-06T01:02:24.590Z,8.60
2022-12-06T01:02:47.604Z,11.80
2022-12-06T01:03:10.560Z,12.45
2022-12-06T01:03:35.260Z,11.95
2022-12-06T01:03:59.766Z,11.02
2022-12-06T01:04:22.459Z,11.23
2022-12-06T01:04:45.304Z,11.95
2022-12-06T01:05:09.111Z,13.13
2022-12-06T01:05:31.992Z,12.38
2022-12-06T01:05:54.735Z,14.27
2022-12-06T01:06:19.049Z,15.45
2022-12-06T01:06:41.804Z,15.40
2022-12-06T01:07:04.540Z,14.20
2022-12-06T01:07:27.287Z,17.98
2022-12-06T01:07:50.054Z,14.32
2022-12-06T01:08:13.051Z,15.55
2022-12-06T01:08:35.956Z,15.20
2022-12-06T01:09:00.083Z,13.40
2022-12-06T01:09:22.866Z,13.25
2022-12-06T01:09:48.069Z,14.73
2022-12-06T01:10:11.676Z,14.20
2022-12-06T01:10:34.438Z,10.95
2022-12-06T01:11:01.766Z,11.63
2022-12-06T01:11:24.721Z,14.75
2022-12-06T01:11:47.416Z,12.70
2022-12-06T01:12:10.335Z,10.27
2022-12-06T01:12:35.521Z,9.55
2022-12-06T01:12:58.322Z,9.50
2022-12-06T01:13:23.305Z,8.68
2022-12-06T01:13:46.055Z,8.98
2022-12-06T01:14:08.760Z,7.70
2022-12-06T01:14:31.545Z,7.18
2022-12-06T01:14:54.236Z,7.45
2022-12-06T01:15:19.462Z,7.57
2022-12-06T01:15:42.241Z,8.07
2022-12-06T01:16:07.969Z,8.23
2022-12-06T01:16:31.270Z,10.05
2022-12-06T01:16:54.305Z,12.63
2022-12-06T01:17:19.511Z,13.80
2022-12-06T01:17:42.247Z,12.85
2022-12-06T01:18:05.102Z,15.23
2022-12-06T01:18:27.765Z,13.80
2022-12-06T01:18:52.530Z,13.50
2022-12-06T01:19:15.435Z,12.05
2022-12-06T01:19:38.130Z,14.18
2022-12-06T01:20:01.368Z,12.48
2022-12-06T01:20:24.412Z,10.25
2022-12-06T01:20:47.191Z,10.50
2022-12-06T01:21:11.050Z,11.85
2022-12-06T01:21:33.819Z,10.80
2022-12-06T01:21:56.580Z,10.73
2022-12-06T01:22:19.278Z,11.20
2022-12-06T01:22:44.250Z,10.90
2022-12-06T01:23:07.435Z,11.70
2022-12-06T01:23:32.406Z,11.88
2022-12-06T01:23:55.186Z,10.77
2022-12-06T01:24:20.060Z,10.65
2022-12-06T01:24:42.901Z,10.20
2022-12-06T01:25:06.187Z,9.48
2022-12-06T01:25:35.824Z,9.45
2022-12-06T01:25:59.229Z,10.43
2022-12-06T01:26:23.675Z,10.07
2022-12-06T01:26:46.395Z,11.13
2022-12-06T01:27:09.146Z,9.27
2022-12-06T01:27:34.111Z,7.78
2022-12-06T01:27:59.006Z,8.18
2022-12-06T01:28:24.998Z,9.65
2022-12-06T01:28:47.837Z,10.25
2022-12-06T01:29:10.712Z,10.27
2022-12-06T01:29:33.480Z,9.98
2022-12-06T01:29:58.849Z,9.35
2022-12-06T01:30:24.972Z,9.77
2022-12-06T01:30:47.920Z,10.05
2022-12-06T01:31:14.340Z,9.93
2022-12-06T01:31:38.918Z,9.43
2022-12-06T01:32:02.045Z,8.70
2022-12-06T01:32:27.262Z,8.13
2022-12-06T01:32:50.002Z,8.80
2022-12-06T01:33:12.772Z,10.70
2022-12-06T01:33:37.990Z,9.38
2022-12-06T01:34:00.955Z,8.30
2022-12-06T01:34:26.690Z,8.82
2022-12-06T01:34:52.652Z,6.80
2022-12-06T01:35:17.911Z,8.13
2022-12-06T01:35:41.551Z,7.07
2022-12-06T01:36:06.707Z,7.60
2022-12-06T01:36:29.475Z,8.38
2022-12-06T01:36:54.629Z,7.93
2022-12-06T01:37:17.547Z,8.50
2022-12-06T01:37:42.951Z,8.73
2022-12-06T01:38:07.960Z,7.60
2022-12-06T01:38:30.831Z,7.32
2022-12-06T01:38:56.682Z,8.32
2022-12-06T01:39:20.820Z,7.55
2022-12-06T01:39:47.240Z,8.63
2022-12-06T01:40:13.978Z,7.25
2022-12-06T01:40:41.737Z,7.60
2022-12-06T01:41:04.471Z,7.38
2022-12-06T01:41:29.909Z,8.55
2022-12-06T01:41:52.741Z,9.85
2022-12-06T01:42:18.869Z,8.80
2022-12-06T01:42:41.498Z,7.88
2022-12-06T01:43:04.324Z,8.52
2022-12-06T01:43:34.187Z,8.73
2022-12-06T01:43:57.102Z,8.85
2022-12-06T01:44:43.102Z,8.13
2022-12-06T01:45:07.580Z,8.63
2022-12-06T01:45:32.715Z,8.15
2022-12-06T01:45:55.513Z,9.57
2022-12-06T01:46:30.303Z,9.65
2022-12-06T01:46:53.121Z,9.07
2022-12-06T01:47:22.075Z,9.15
2022-12-06T01:47:47.040Z,8.57
2022-12-06T01:48:09.760Z,9.23
2022-12-06T01:48:34.981Z,8.45
2022-12-06T01:49:03.039Z,8.20
2022-12-06T01:49:27.795Z,8.23
2022-12-06T01:49:54.994Z,9.77
2022-12-06T01:50:20.145Z,7.85
2022-12-06T01:50:43.050Z,9.05
2022-12-06T01:51:08.255Z,9.23
2022-12-06T01:51:33.440Z,8.63
2022-12-06T01:52:00.859Z,9.10
2022-12-06T01:52:24.340Z,8.38
2022-12-06T01:52:49.670Z,9.05
2022-12-06T01:53:13.210Z,9.73
2022-12-06T01:53:36.026Z,10.10
2022-12-06T01:53:58.793Z,10.02
2022-12-06T01:54:23.659Z,10.00
2022-12-06T01:54:48.676Z,8.57
2022-12-06T01:55:11.517Z,7.75
2022-12-06T01:55:37.895Z,7.63
2022-12-06T01:56:00.700Z,8.68
2022-12-06T01:56:25.595Z,8.85
2022-12-06T01:56:48.470Z,8.05
2022-12-06T01:57:14.091Z,7.85
2022-12-06T01:57:37.042Z,8.65
2022-12-06T01:58:01.993Z,9.45
2022-12-06T01:58:27.856Z,9.68
2022-12-06T01:58:51.255Z,9.20
2022-12-06T01:59:13.952Z,10.68
2022-12-06T01:59:39.000Z,8.88
2022-12-06T02:00:04.070Z,8.85
2022-12-06T02:00:26.959Z,10.40
2022-12-06T02:00:51.835Z,9.55
2022-12-06T02:01:16.894Z,8.63
2022-12-06T02:01:41.216Z,9.50
2022-12-06T02:02:06.228Z,9.77
2022-12-06T02:02:29.088Z,10.85
2022-12-06T02:02:52.016Z,10.70
2022-12-06T02:03:20.437Z,10.43
2022-12-06T02:03:43.165Z,9.40
2022-12-06T02:04:06.989Z,9.20
2022-12-06T02:04:29.996Z,9.95
2022-12-06T02:04:52.706Z,9.70
2022-12-06T02:05:17.910Z,9.05
2022-12-06T02:05:41.089Z,8.75
2022-12-06T02:06:04.805Z,10.35
2022-12-06T02:06:28.659Z,10.13
2022-12-06T02:06:51.460Z,10.18
2022-12-06T02:07:14.135Z,10.05
2022-12-06T02:07:39.401Z,8.85
2022-12-06T02:08:02.311Z,8.75
2022-12-06T02:08:27.485Z,8.88
2022-12-06T02:08:51.970Z,10.73
2022-12-06T02:09:14.776Z,8.27
2022-12-06T02:09:37.521Z,9.18
2022-12-06T02:10:00.372Z,10.05
2022-12-06T02:10:23.190Z,10.10
2022-12-06T02:10:48.351Z,9.50
2022-12-06T02:11:11.090Z,10.18
2022-12-06T02:11:35.651Z,8.90
2022-12-06T02:11:58.682Z,8.75
2022-12-06T02:12:23.964Z,9.10
2022-12-06T02:12:47.196Z,9.40
2022-12-06T02:13:09.926Z,9.60
2022-12-06T02:13:35.400Z,8.63
2022-12-06T02:14:00.395Z,8.63
2022-12-06T02:14:27.101Z,8.93
2022-12-06T02:14:53.290Z,9.98
2022-12-06T02:15:16.143Z,10.00
2022-12-06T02:15:47.734Z,9.68
2022-12-06T02:16:21.016Z,7.50
2022-12-06T02:16:52.970Z,8.63
2022-12-06T02:17:27.161Z,9.02
2022-12-06T02:17:53.982Z,8.75
2022-12-06T02:18:19.600Z,8.52
2022-12-06T02:18:45.758Z,9.18
2022-12-06T02:19:16.615Z,8.63
2022-12-06T02:20:05.496Z,7.60
2022-12-06T02:20:30.275Z,7.40
2022-12-06T02:20:55.280Z,8.48
2022-12-06T02:21:22.940Z,8.95
2022-12-06T02:21:49.516Z,8.77
2022-12-06T02:22:18.726Z,8.43
2022-12-06T02:23:07.201Z,8.77
2022-12-06T02:24:01.565Z,9.05
2022-12-06T02:24:56.550Z,10.25
2022-12-06T02:25:43.449Z,8.52
2022-12-06T02:26:25.771Z,8.35
2022-12-06T02:26:50.152Z,8.88
2022-12-06T02:27:36.621Z,8.52
2022-12-06T02:28:13.605Z,9.48
2022-12-06T02:29:02.181Z,9.02
2022-12-06T02:30:00.394Z,9.65
2022-12-06T02:30:38.630Z,10.57
2022-12-06T02:31:02.939Z,8.98
2022-12-06T02:31:29.804Z,8.38
2022-12-06T02:31:55.675Z,7.38
2022-12-06T02:32:19.124Z,7.78
2022-12-06T02:32:53.238Z,7.25
2022-12-06T02:33:21.625Z,7.15
2022-12-06T02:33:47.497Z,8.05
2022-12-06T02:34:13.490Z,8.50
2022-12-06T02:34:41.496Z,8.27
2022-12-06T02:35:09.236Z,7.47
2022-12-06T02:35:32.829Z,7.55
2022-12-06T02:35:58.525Z,5.78
2022-12-06T02:36:25.115Z,6.28
2022-12-06T02:36:53.670Z,6.40
2022-12-06T02:37:19.136Z,6.93
2022-12-06T02:37:44.990Z,6.65
2022-12-06T02:38:13.389Z,5.53
2022-12-06T02:38:40.875Z,6.47
2022-12-06T02:39:05.601Z,7.47
2022-12-06T02:39:30.088Z,6.88
2022-12-06T02:39:55.928Z,7.00
2022-12-06T02:40:20.284Z,6.50
2022-12-06T02:40:45.780Z,7.88
2022-12-06T02:41:10.715Z,8.05
2022-12-06T02:41:36.155Z,8.38
2022-12-06T02:42:00.483Z,7.22
2022-12-06T02:42:26.156Z,6.68
2022-12-06T02:42:51.903Z,7.75
2022-12-06T02:43:16.171Z,8.73
2022-12-06T02:43:41.766Z,8.23
2022-12-06T02:44:05.771Z,7.65
2022-12-06T02:44:33.496Z,7.40
2022-12-06T02:44:58.939Z,7.35
2022-12-06T02:45:24.214Z,8.00
2022-12-06T02:45:50.674Z,7.57
2022-12-06T02:46:16.255Z,7.30
2022-12-06T02:46:41.557Z,6.68
2022-12-06T02:47:05.996Z,6.97
2022-12-06T02:47:35.017Z,7.03
2022-12-06T02:48:00.736Z,7.40
2022-12-06T02:48:23.722Z,7.63
2022-12-06T02:48:48.696Z,7.43
2022-12-06T02:49:11.476Z,7.03
2022-12-06T02:49:37.240Z,7.05
2022-12-06T02:50:00.379Z,8.60
2022-12-06T02:50:25.620Z,9.25
2022-12-06T02:50:50.981Z,7.78
2022-12-06T02:51:14.605Z,7.82
2022-12-06T02:51:39.709Z,9.77
2022-12-06T02:52:02.475Z,8.13
2022-12-06T02:52:30.825Z,7.25
2022-12-06T02:52:54.204Z,8.07
2022-12-06T02:53:20.196Z,7.95
2022-12-06T02:53:44.956Z,6.85
2022-12-06T02:54:10.099Z,8.45
2022-12-06T02:54:35.170Z,8.13
2022-12-06T02:55:01.271Z,8.60
2022-12-06T02:55:24.697Z,7.20
2022-12-06T02:55:47.395Z,7.80
2022-12-06T02:56:12.401Z,9.55
2022-12-06T02:56:35.093Z,8.65
2022-12-06T02:56:57.775Z,11.38
2022-12-06T02:57:20.544Z,12.68
2022-12-06T02:57:46.793Z,8.15
2022-12-06T02:58:09.955Z,6.95
2022-12-06T02:58:37.710Z,7.43
2022-12-06T02:59:00.430Z,7.60
2022-12-06T02:59:23.695Z,10.13
2022-12-06T02:59:53.643Z,9.45
2022-12-06T03:00:34.280Z,18.00
2022-12-06T03:00:58.473Z,26.45
2022-12-06T03:01:22.592Z,27.48
2022-12-06T03:01:49.195Z,23.80
2022-12-06T03:02:12.080Z,48.03
2022-12-06T03:02:35.019Z,53.05
2022-12-06T03:03:04.527Z,49.33
2022-12-06T03:03:39.586Z,48.60
2022-12-06T03:04:12.220Z,49.55
2022-12-06T03:04:49.153Z,53.08
2022-12-06T03:05:14.336Z,70.50
2022-12-06T03:05:38.523Z,100.20
2022-12-06T03:06:32.505Z,78.35
2022-12-06T03:07:07.411Z,63.90
2022-12-06T03:07:39.718Z,69.57
2022-12-06T03:08:03.044Z,79.50
2022-12-06T03:08:29.826Z,57.90
2022-12-06T03:08:58.260Z,79.63
2022-12-06T03:09:51.390Z,71.15
2022-12-06T03:10:24.822Z,75.35
2022-12-06T03:10:49.925Z,74.30
2022-12-06T03:11:12.712Z,60.17
2022-12-06T03:11:44.660Z,71.53
2022-12-06T03:12:10.997Z,44.33
2022-12-06T03:12:39.376Z,51.80
2022-12-06T03:13:05.387Z,60.60
2022-12-06T03:13:33.930Z,60.80
2022-12-06T03:13:59.929Z,58.03
2022-12-06T03:14:24.156Z,55.88
2022-12-06T03:14:49.276Z,67.60
2022-12-06T03:15:14.716Z,69.60
2022-12-06T03:15:48.854Z,66.47
2022-12-06T03:16:16.359Z,48.83
2022-12-06T03:16:44.816Z,38.25
2022-12-06T03:17:10.190Z,49.03
2022-12-06T03:17:36.320Z,88.35
2022-12-06T03:18:00.701Z,52.47
2022-12-06T03:18:25.435Z,60.70
2022-12-06T03:18:50.013Z,36.03
2022-12-06T03:19:15.684Z,56.90
2022-12-06T03:19:38.452Z,50.92
2022-12-06T03:20:04.005Z,43.83
2022-12-06T03:20:27.751Z,37.55
2022-12-06T03:20:52.276Z,35.05
2022-12-06T03:21:17.772Z,30.95
2022-12-06T03:21:41.761Z,27.25
2022-12-06T03:22:06.730Z,37.00
2022-12-06T03:22:34.429Z,35.92
2022-12-06T03:23:02.591Z,37.85
2022-12-06T03:23:28.423Z,35.03
2022-12-06T03:23:51.168Z,33.40
2022-12-06T03:24:15.650Z,29.38
2022-12-06T03:24:39.780Z,22.95
2022-12-06T03:25:02.885Z,27.42
2022-12-06T03:25:25.609Z,40.60
2022-12-06T03:25:48.350Z,35.42
2022-12-06T03:26:12.195Z,23.65
2022-12-06T03:26:34.980Z,24.30
2022-12-06T03:27:00.781Z,26.15
2022-12-06T03:27:23.517Z,22.75
2022-12-06T03:27:49.025Z,29.73
2022-12-06T03:28:13.770Z,27.77
2022-12-06T03:28:36.830Z,29.67
2022-12-06T03:29:00.649Z,36.42
2022-12-06T03:29:24.317Z,29.00
2022-12-06T03:29:49.774Z,31.27
2022-12-06T03:30:13.665Z,38.92
2022-12-06T03:30:36.491Z,38.88
2022-12-06T03:31:01.190Z,35.63
2022-12-06T03:31:25.467Z,44.85
2022-12-06T03:31:49.290Z,52.45
2022-12-06T03:32:12.031Z,61.55
2022-12-06T03:32:34.977Z,51.10
2022-12-06T03:32:58.335Z,41.75
2022-12-06T03:33:23.290Z,31.00
2022-12-06T03:33:47.591Z,38.20
2022-12-06T03:34:11.670Z,52.00
2022-12-06T03:34:36.742Z,66.57
2022-12-06T03:35:01.937Z,39.35
2022-12-06T03:35:27.252Z,28.05
2022-12-06T03:35:50.601Z,23.73
2022-12-06T03:36:13.615Z,31.17
2022-12-06T03:36:36.321Z,30.30
2022-12-06T03:36:59.561Z,31.15
2022-12-06T03:37:23.276Z,30.00
2022-12-06T03:37:48.226Z,30.10
2022-12-06T03:38:12.340Z,31.52
2022-12-06T03:38:37.171Z,32.10
2022-12-06T03:39:01.190Z,45.95
2022-12-06T03:39:26.576Z,40.35
2022-12-06T03:39:52.176Z,52.67
2022-12-06T03:40:18.245Z,42.90
2022-12-06T03:40:43.206Z,37.63
2022-12-06T03:41:06.509Z,58.50
2022-12-06T03:41:30.251Z,58.78
2022-12-06T03:41:55.543Z,51.55
2022-12-06T03:42:19.383Z,43.85
2022-12-06T03:42:42.122Z,52.90
2022-12-06T03:43:04.906Z,41.05
2022-12-06T03:43:27.796Z,47.88
2022-12-06T03:43:50.561Z,48.45
2022-12-06T03:44:13.350Z,34.22
2022-12-06T03:44:36.005Z,50.30
2022-12-06T03:44:58.714Z,32.95
2022-12-06T03:45:22.086Z,26.95
2022-12-06T03:45:55.894Z,26.83
2022-12-06T03:46:22.078Z,32.50
2022-12-06T03:46:47.649Z,29.75
2022-12-06T03:47:16.279Z,20.27
2022-12-06T03:47:46.246Z,24.35
2022-12-06T03:48:11.041Z,29.77
2022-12-06T03:48:36.515Z,33.33
2022-12-06T03:49:00.130Z,22.88
2022-12-06T03:49:25.152Z,33.70
2022-12-06T03:49:48.806Z,27.30
2022-12-06T03:50:14.452Z,26.48
2022-12-06T03:50:39.217Z,35.60
2022-12-06T03:51:02.831Z,29.63
2022-12-06T03:51:26.821Z,26.08
2022-12-06T03:51:50.656Z,29.25
2022-12-06T03:52:13.422Z,36.20
2022-12-06T03:52:36.187Z,25.77
2022-12-06T03:53:00.058Z,21.73
2022-12-06T03:53:22.807Z,19.80
2022-12-06T03:53:47.439Z,26.58
2022-12-06T03:54:10.435Z,21.02
2022-12-06T03:54:33.130Z,15.80
2022-12-06T03:54:55.961Z,19.85
2022-12-06T03:55:21.458Z,19.70
2022-12-06T03:55:46.491Z,13.75
2022-12-06T03:56:09.181Z,11.63
2022-12-06T03:56:31.984Z,15.15
2022-12-06T03:56:54.717Z,20.63
2022-12-06T03:57:17.440Z,18.98
2022-12-06T03:57:40.171Z,23.73
2022-12-06T03:58:02.893Z,23.50
2022-12-06T03:58:25.582Z,26.20
2022-12-06T03:58:48.425Z,34.28
2022-12-06T03:59:11.220Z,46.00
2022-12-06T03:59:33.973Z,82.40
2022-12-06T03:59:59.172Z,37.33
2022-12-06T04:00:22.260Z,35.15
2022-12-06T04:00:48.167Z,27.27
2022-12-06T04:01:11.510Z,32.28
2022-12-06T04:01:34.613Z,28.08
2022-12-06T04:01:59.068Z,29.60
2022-12-06T04:02:21.892Z,20.52
2022-12-06T04:02:46.318Z,15.25
2022-12-06T04:03:09.038Z,19.38
2022-12-06T04:03:31.844Z,19.08
2022-12-06T04:03:54.590Z,28.15
2022-12-06T04:04:17.541Z,17.23
2022-12-06T04:04:40.671Z,22.25
2022-12-06T04:05:03.447Z,13.43
2022-12-06T04:05:26.278Z,17.90
2022-12-06T04:05:49.098Z,17.35
2022-12-06T04:06:11.955Z,15.25
2022-12-06T04:06:34.645Z,19.50
2022-12-06T04:06:57.411Z,19.70
2022-12-06T04:07:21.522Z,11.60
2022-12-06T04:07:44.203Z,17.90
2022-12-06T04:08:07.068Z,20.67
2022-12-06T04:08:29.925Z,15.00
2022-12-06T04:08:52.650Z,16.25
2022-12-06T04:09:34.247Z,22.77
2022-12-06T04:10:03.264Z,18.42
2022-12-06T04:10:26.305Z,18.13
2022-12-06T04:10:49.126Z,22.52
2022-12-06T04:11:11.848Z,31.85
2022-12-06T04:11:34.531Z,63.95
2022-12-06T04:11:57.316Z,75.10
2022-12-06T04:12:38.566Z,79.50
2022-12-06T04:13:01.281Z,78.97
2022-12-06T04:13:24.010Z,88.07
2022-12-06T04:13:46.726Z,66.70
2022-12-06T04:14:09.481Z,74.22
2022-12-06T04:14:39.582Z,73.75
2022-12-06T04:15:02.402Z,54.15
2022-12-06T04:15:25.115Z,36.63
2022-12-06T04:15:48.478Z,64.32
2022-12-06T04:16:29.933Z,69.13
2022-12-06T04:17:11.166Z,38.45
2022-12-06T04:17:56.472Z,20.63
2022-12-06T04:18:19.217Z,37.10
2022-12-06T04:18:41.996Z,27.85
2022-12-06T04:19:04.756Z,26.52
2022-12-06T04:19:27.534Z,21.90
2022-12-06T04:19:52.234Z,23.63
2022-12-06T04:20:15.383Z,19.58
2022-12-06T04:21:00.041Z,25.90
2022-12-06T04:21:31.635Z,22.58
2022-12-06T04:22:13.937Z,32.70
2022-12-06T04:22:55.521Z,14.45
2022-12-06T04:23:18.330Z,38.55
2022-12-06T04:23:41.942Z,15.65
2022-12-06T04:24:05.261Z,15.55
2022-12-06T04:24:28.016Z,11.65
2022-12-06T04:24:50.776Z,10.13
2022-12-06T04:25:16.595Z,14.00
2022-12-06T04:25:39.351Z,12.18
2022-12-06T04:26:02.220Z,10.02
2022-12-06T04:26:27.363Z,8.32
2022-12-06T04:26:50.081Z,8.55
2022-12-06T04:27:31.995Z,11.05
2022-12-06T04:28:13.359Z,12.20
2022-12-06T04:28:54.935Z,24.98
2022-12-06T04:29:36.451Z,20.92
2022-12-06T04:30:17.865Z,21.00
2022-12-06T04:30:59.240Z,14.88
2022-12-06T04:31:40.793Z,10.80
2022-12-06T04:32:22.346Z,16.40
2022-12-06T04:33:05.141Z,35.63
2022-12-06T04:33:46.651Z,48.58
2022-12-06T04:34:28.221Z,85.47
2022-12-06T04:35:09.936Z,35.22
2022-12-06T04:35:51.536Z,15.23
2022-12-06T04:36:32.970Z,12.27
2022-12-06T04:37:14.617Z,30.33
2022-12-06T04:37:56.140Z,80.30
2022-12-06T04:38:37.610Z,56.38
2022-12-06T04:39:00.338Z,38.20
2022-12-06T04:39:23.116Z,58.47
2022-12-06T04:39:46.019Z,41.45
2022-12-06T04:40:10.123Z,22.23
2022-12-06T04:40:34.090Z,12.93
2022-12-06T04:40:56.878Z,18.35
2022-12-06T04:41:38.247Z,17.52
2022-12-06T04:42:19.457Z,20.55
2022-12-06T04:43:00.776Z,26.50
2022-12-06T04:43:42.152Z,37.25
2022-12-06T04:44:05.102Z,21.67
2022-12-06T04:44:27.907Z,23.10
2022-12-06T04:44:50.692Z,34.78
2022-12-06T04:45:13.376Z,34.55
2022-12-06T04:45:36.096Z,31.20
2022-12-06T04:45:58.886Z,26.73
2022-12-06T04:46:21.682Z,25.02
2022-12-06T04:46:44.524Z,19.10
2022-12-06T04:47:07.435Z,15.65
2022-12-06T04:47:30.306Z,15.40
2022-12-06T04:47:54.490Z,18.63
2022-12-06T04:48:17.255Z,15.50
2022-12-06T04:48:40.161Z,14.93
2022-12-06T04:49:02.870Z,13.85
2022-12-06T04:49:26.580Z,16.90
2022-12-06T04:49:49.443Z,17.70
2022-12-06T04:50:12.180Z,19.10
2022-12-06T04:50:34.981Z,25.52
2022-12-06T04:50:57.770Z,24.60
2022-12-06T04:51:20.685Z,17.23
2022-12-06T04:51:43.450Z,27.42
2022-12-06T04:52:09.616Z,22.33
2022-12-06T04:52:36.197Z,16.17
2022-12-06T04:52:59.439Z,18.00
2022-12-06T04:53:22.182Z,15.18
2022-12-06T04:53:44.981Z,14.05
2022-12-06T04:54:07.626Z,17.70
2022-12-06T04:54:30.960Z,15.68
2022-12-06T04:54:54.790Z,15.70
2022-12-06T04:55:17.650Z,17.83
2022-12-06T04:55:40.376Z,19.23
2022-12-06T04:56:03.416Z,18.75
2022-12-06T04:56:26.247Z,16.52
2022-12-06T04:56:48.946Z,18.05
2022-12-06T04:57:12.691Z,20.52
2022-12-06T04:57:35.540Z,20.17
2022-12-06T04:57:58.317Z,18.13
2022-12-06T04:58:20.996Z,16.98
2022-12-06T04:58:43.995Z,16.77
2022-12-06T04:59:06.735Z,16.77
2022-12-06T04:59:29.685Z,15.05
2022-12-06T04:59:52.492Z,17.27
2022-12-06T05:00:16.459Z,17.05
2022-12-06T05:00:43.808Z,15.20
2022-12-06T05:01:06.755Z,14.55
2022-12-06T05:01:29.671Z,14.18
2022-12-06T05:01:52.557Z,13.48
2022-12-06T05:02:17.875Z,13.38
2022-12-06T05:02:43.086Z,13.48
2022-12-06T05:03:07.680Z,14.77
2022-12-06T05:03:30.557Z,11.63
2022-12-06T05:03:53.421Z,12.07
2022-12-06T05:04:16.245Z,13.00
2022-12-06T05:04:38.948Z,10.95
2022-12-06T05:05:03.960Z,10.27
2022-12-06T05:05:26.700Z,13.98
2022-12-06T05:05:51.936Z,10.80
2022-12-06T05:06:14.635Z,9.32
2022-12-06T05:06:37.351Z,10.85
2022-12-06T05:07:00.055Z,12.82
2022-12-06T05:07:22.812Z,9.70
2022-12-06T05:07:47.727Z,11.68
2022-12-06T05:08:10.507Z,11.07
2022-12-06T05:08:33.330Z,8.55
2022-12-06T05:08:59.041Z,8.88
2022-12-06T05:09:21.945Z,10.05
2022-12-06T05:09:44.812Z,9.15
2022-12-06T05:10:08.834Z,9.25
2022-12-06T05:10:34.009Z,9.40
2022-12-06T05:10:57.009Z,9.80
2022-12-06T05:11:22.226Z,9.13
2022-12-06T05:11:44.914Z,10.98
2022-12-06T05:12:08.122Z,10.75
2022-12-06T05:12:33.050Z,9.40
2022-12-06T05:12:55.840Z,9.02
2022-12-06T05:13:20.825Z,9.18
2022-12-06T05:13:43.636Z,9.20
2022-12-06T05:14:08.825Z,9.48
2022-12-06T05:14:31.701Z,13.30
2022-12-06T05:14:54.435Z,16.02
2022-12-06T05:15:17.136Z,13.57
2022-12-06T05:15:39.830Z,12.18
2022-12-06T05:16:03.887Z,10.63
2022-12-06T05:16:26.927Z,10.15
2022-12-06T05:16:49.847Z,10.35
2022-12-06T05:17:14.755Z,9.63
2022-12-06T05:17:37.610Z,9.13
2022-12-06T05:18:02.476Z,8.98
2022-12-06T05:18:26.679Z,9.95
2022-12-06T05:18:51.957Z,9.55
2022-12-06T05:19:14.832Z,10.63
2022-12-06T05:19:39.804Z,9.50
2022-12-06T05:20:04.807Z,8.25
2022-12-06T05:20:27.684Z,9.43
2022-12-06T05:20:52.590Z,8.90
2022-12-06T05:21:16.617Z,8.07
2022-12-06T05:21:39.288Z,9.50
2022-12-06T05:22:02.152Z,10.13
2022-12-06T05:22:24.875Z,9.55
2022-12-06T05:22:47.526Z,9.25
2022-12-06T05:23:10.270Z,10.50
2022-12-06T05:23:35.264Z,9.43
2022-12-06T05:23:58.045Z,9.00
2022-12-06T05:24:23.220Z,9.82
2022-12-06T05:24:48.168Z,9.45
2022-12-06T05:25:11.290Z,9.32
2022-12-06T05:25:33.962Z,11.15
2022-12-06T05:25:59.881Z,10.43
2022-12-06T05:26:23.990Z,10.77
2022-12-06T05:26:46.711Z,10.00
2022-12-06T05:27:11.692Z,9.93
2022-12-06T05:27:36.179Z,9.63
2022-12-06T05:28:01.896Z,13.60
2022-12-06T05:28:25.146Z,10.27
2022-12-06T05:28:50.351Z,8.68
2022-12-06T05:29:13.098Z,8.02
2022-12-06T05:29:39.012Z,9.68
2022-12-06T05:30:02.058Z,10.15
2022-12-06T05:30:25.105Z,11.40
2022-12-06T05:30:47.846Z,12.68
2022-12-06T05:31:10.653Z,14.55
2022-12-06T05:31:33.596Z,14.55
2022-12-06T05:31:56.475Z,11.57
2022-12-06T05:32:19.315Z,11.07
2022-12-06T05:32:42.065Z,12.20
2022-12-06T05:33:04.813Z,10.65
2022-12-06T05:33:29.168Z,13.38